createdAt,value
2018-07-04T00:00:13.569Z,81.47
2018-07-04T00:02:54.340Z,80.45
2018-07-04T00:05:34.806Z,80.17
2018-07-04T00:08:15.879Z,80.74
2018-07-04T00:10:57.809Z,80.85
2018-07-04T00:13:39.043Z,81.17
2018-07-04T00:16:20.130Z,81.86
2018-07-04T00:19:00.683Z,81.34
2018-07-04T00:21:41.397Z,81.02
2018-07-04T00:24:21.439Z,81.87
2018-07-04T00:27:02.431Z,82.37
2018-07-04T00:29:42.887Z,82.12
2018-07-04T00:32:22.881Z,82.68
2018-07-04T00:35:03.928Z,82.55
2018-07-04T00:37:44.426Z,82.97
2018-07-04T00:40:25.601Z,82.92
2018-07-04T00:43:06.266Z,81.84
2018-07-04T00:45:46.436Z,81.56
2018-07-04T00:48:26.824Z,80.94
2018-07-04T00:51:07.947Z,80.55
2018-07-04T00:53:48.521Z,80.53
2018-07-04T00:56:29.140Z,82.32
2018-07-04T00:59:10.172Z,82.67
2018-07-04T01:01:51.412Z,82.38
2018-07-04T01:04:31.521Z,83.01
2018-07-04T01:07:12.072Z,83.14
2018-07-04T01:09:53.269Z,83.42
2018-07-04T01:12:34.625Z,83.50
2018-07-04T01:15:15.320Z,84.38
2018-07-04T01:17:55.573Z,84.88
2018-07-04T01:20:40.905Z,84.42
2018-07-04T01:23:22.445Z,84.08
2018-07-04T01:26:03.111Z,84.15
2018-07-04T01:28:50.635Z,84.06
2018-07-04T01:31:31.745Z,84.08
2018-07-04T01:34:11.997Z,84.00
2018-07-04T01:36:51.970Z,83.92
2018-07-04T01:39:32.733Z,84.10
2018-07-04T01:42:13.577Z,84.47
2018-07-04T01:44:54.584Z,84.31
2018-07-04T01:47:34.973Z,84.32
2018-07-04T01:50:15.074Z,83.62
2018-07-04T01:52:56.270Z,83.43
2018-07-04T01:55:36.947Z,83.45
2018-07-04T01:58:17.296Z,83.61
2018-07-04T02:07:47.800Z,84.37
2018-07-04T02:10:27.739Z,84.66
2018-07-04T02:13:08.280Z,85.82
2018-07-04T02:15:48.787Z,85.45
2018-07-04T02:18:29.540Z,84.98
2018-07-04T02:21:10.111Z,85.58
2018-07-04T02:23:50.916Z,85.67
2018-07-04T02:26:32.308Z,85.74
2018-07-04T02:29:12.548Z,86.09
2018-07-04T02:31:53.039Z,86.05
2018-07-04T02:34:33.802Z,85.80
2018-07-04T02:37:14.687Z,86.56
2018-07-04T02:39:55.237Z,87.28
2018-07-04T02:42:36.132Z,88.03
2018-07-04T02:45:17.603Z,88.34
2018-07-04T02:47:59.486Z,87.84
2018-07-04T02:50:39.817Z,84.57
2018-07-04T02:53:20.185Z,84.58
2018-07-04T02:56:01.521Z,85.22
2018-07-04T02:58:42.698Z,85.89
2018-07-04T03:01:23.310Z,85.89
2018-07-04T03:04:04.544Z,86.06
2018-07-04T03:06:45.269Z,86.23
2018-07-04T03:09:25.780Z,86.01
2018-07-04T03:12:06.464Z,85.87
2018-07-04T03:14:47.239Z,86.27
2018-07-04T03:17:27.290Z,86.51
2018-07-04T03:20:08.179Z,85.68
2018-07-04T03:22:49.622Z,85.00
2018-07-04T03:25:30.142Z,84.77
2018-07-04T03:28:10.734Z,84.81
2018-07-04T03:30:51.320Z,85.43
2018-07-04T03:33:32.023Z,85.36
2018-07-04T03:36:12.498Z,85.73
2018-07-04T03:38:52.961Z,85.85
2018-07-04T03:41:34.464Z,85.14
2018-07-04T03:44:16.149Z,85.40
2018-07-04T03:46:56.185Z,86.03
2018-07-04T03:49:38.154Z,86.93
2018-07-04T03:52:18.589Z,87.31
2018-07-04T03:55:00.128Z,87.89
2018-07-04T03:57:41.031Z,87.15
2018-07-04T04:00:21.699Z,87.49
2018-07-04T04:03:02.609Z,87.73
2018-07-04T04:05:43.391Z,87.97
2018-07-04T04:08:25.042Z,88.11
2018-07-04T04:11:05.260Z,88.06
2018-07-04T04:13:45.909Z,87.62
2018-07-04T04:16:26.481Z,86.95
2018-07-04T04:19:06.965Z,86.05
2018-07-04T04:21:47.532Z,85.78
2018-07-04T04:24:27.855Z,86.94
2018-07-04T04:27:07.990Z,88.06
2018-07-04T04:29:49.009Z,88.89
2018-07-04T04:32:30.351Z,89.57
2018-07-04T04:35:11.045Z,89.42
2018-07-04T04:37:51.553Z,88.56
2018-07-04T04:40:32.401Z,87.86
2018-07-04T04:43:12.887Z,87.32
2018-07-04T04:45:53.941Z,87.13
2018-07-04T04:48:34.217Z,87.39
2018-07-04T04:51:15.225Z,87.11
2018-07-04T04:53:56.576Z,87.26
2018-07-04T04:56:37.533Z,86.88
2018-07-04T04:59:18.433Z,86.78
2018-07-04T05:01:58.993Z,87.08
2018-07-04T05:04:41.006Z,87.17
2018-07-04T05:07:21.661Z,86.78
2018-07-04T05:10:02.880Z,87.12
2018-07-04T05:12:43.177Z,85.85
2018-07-04T05:15:25.194Z,84.96
2018-07-04T05:18:05.599Z,84.69
2018-07-04T05:20:45.948Z,84.19
2018-07-04T05:23:26.563Z,83.68
2018-07-04T05:26:07.629Z,84.41
2018-07-04T05:28:48.976Z,83.90
2018-07-04T05:31:29.707Z,83.03
2018-07-04T05:34:10.979Z,83.47
2018-07-04T05:36:51.453Z,80.92
2018-07-04T05:39:31.581Z,77.24
2018-07-04T05:42:12.049Z,70.79
2018-07-04T05:44:52.440Z,63.50
2018-07-04T05:47:33.067Z,57.98
2018-07-04T05:50:14.417Z,54.10
2018-07-04T05:52:55.537Z,52.73
2018-07-04T05:55:36.060Z,50.76
2018-07-04T05:58:16.375Z,49.86
2018-07-04T06:00:57.909Z,49.11
2018-07-04T06:03:38.306Z,48.59
2018-07-04T06:06:18.427Z,49.14
2018-07-04T06:08:58.552Z,49.97
2018-07-04T06:11:38.613Z,51.20
2018-07-04T06:14:18.816Z,53.21
2018-07-04T06:16:58.874Z,56.96
2018-07-04T06:19:39.102Z,60.05
2018-07-04T06:22:19.474Z,63.16
2018-07-04T06:24:59.610Z,67.55
2018-07-04T06:27:39.773Z,69.37
2018-07-04T06:30:20.257Z,68.52
2018-07-04T06:33:00.256Z,69.42
2018-07-04T06:35:40.289Z,69.54
2018-07-04T06:38:07.929Z,70.13
2018-07-04T06:40:35.646Z,69.03
2018-07-04T06:43:03.301Z,70.66
2018-07-04T06:45:31.006Z,69.66
2018-07-04T06:47:58.666Z,67.72
2018-07-04T06:50:26.381Z,69.29
2018-07-04T06:52:54.028Z,68.31
2018-07-04T06:55:21.714Z,67.21
2018-07-04T06:57:49.385Z,67.52
2018-07-04T07:00:17.070Z,66.67
2018-07-04T07:02:44.708Z,66.06
2018-07-04T07:05:24.777Z,67.08
2018-07-04T07:08:04.838Z,67.19
2018-07-04T07:10:44.882Z,65.06
2018-07-04T07:13:25.006Z,64.87
2018-07-04T07:16:05.081Z,64.54
2018-07-04T07:18:45.316Z,64.25
2018-07-04T07:21:25.462Z,60.79
2018-07-04T07:24:05.489Z,60.92
2018-07-04T07:26:45.670Z,60.00
2018-07-04T07:29:25.611Z,60.56
2018-07-04T07:32:05.706Z,59.62
2018-07-04T07:34:46.014Z,58.79
2018-07-04T07:37:26.073Z,57.69
2018-07-04T07:40:06.175Z,56.68
2018-07-04T07:42:46.357Z,55.83
2018-07-04T07:45:26.437Z,55.07
2018-07-04T07:48:06.492Z,55.44
2018-07-04T07:50:46.640Z,53.60
2018-07-04T07:53:26.659Z,53.35
2018-07-04T07:56:06.619Z,53.51
2018-07-04T07:58:46.744Z,53.98
2018-07-04T08:01:26.794Z,53.53
2018-07-04T08:04:07.019Z,52.06
2018-07-04T08:06:47.140Z,49.41
2018-07-04T08:09:27.128Z,49.25
2018-07-04T08:12:07.376Z,49.92
2018-07-04T08:14:47.356Z,46.98
2018-07-04T08:17:27.814Z,48.20
2018-07-04T08:20:08.455Z,49.15
2018-07-04T08:22:48.896Z,49.18
2018-07-04T08:25:28.933Z,48.49
2018-07-04T08:28:09.018Z,46.85
2018-07-04T08:30:49.098Z,47.56
2018-07-04T08:33:29.365Z,48.66
2018-07-04T08:36:09.558Z,47.82
2018-07-04T08:38:50.744Z,44.99
2018-07-04T08:41:30.744Z,44.93
2018-07-04T08:44:10.924Z,45.95
2018-07-04T08:46:50.986Z,46.34
2018-07-04T08:49:31.121Z,45.31
2018-07-04T08:52:11.226Z,45.50
2018-07-04T08:54:51.356Z,43.66
2018-07-04T08:57:31.499Z,43.21
2018-07-04T09:00:11.561Z,42.97
2018-07-04T09:02:51.726Z,43.94
2018-07-04T09:05:31.872Z,44.06
2018-07-04T09:08:11.942Z,42.42
2018-07-04T09:10:52.172Z,43.67
2018-07-04T09:13:32.356Z,41.24
2018-07-04T09:16:12.546Z,40.63
2018-07-04T09:18:52.569Z,39.79
2018-07-04T09:21:32.757Z,39.33
2018-07-04T09:24:12.885Z,39.74
2018-07-04T09:26:52.999Z,38.73
2018-07-04T09:29:33.156Z,40.51
2018-07-04T09:32:13.097Z,37.63
2018-07-04T09:34:53.177Z,37.05
2018-07-04T09:37:33.268Z,37.89
2018-07-04T09:40:13.330Z,36.26
2018-07-04T09:42:53.720Z,37.21
2018-07-04T09:45:33.936Z,37.14
2018-07-04T09:48:14.160Z,35.55
2018-07-04T09:50:54.415Z,36.34
2018-07-04T09:53:34.595Z,37.20
2018-07-04T09:56:22.038Z,35.38
2018-07-04T09:59:02.149Z,35.45
2018-07-04T10:01:42.397Z,36.10
2018-07-04T10:04:22.725Z,34.85
2018-07-04T10:07:02.802Z,35.60
2018-07-04T10:09:42.752Z,34.20
2018-07-04T10:12:22.727Z,34.93
2018-07-04T10:15:02.799Z,35.15
2018-07-04T10:17:42.915Z,34.57
2018-07-04T10:20:22.963Z,34.76
2018-07-04T10:23:03.093Z,35.83
2018-07-04T10:25:43.281Z,36.16
2018-07-04T10:28:23.305Z,35.14
2018-07-04T10:31:03.629Z,35.30
2018-07-04T10:33:43.557Z,34.58
2018-07-04T10:36:23.665Z,34.20
2018-07-04T10:49:08.525Z,35.38
2018-07-04T10:51:48.824Z,36.47
2018-07-04T10:54:29.025Z,36.70
2018-07-04T10:57:09.404Z,37.08
2018-07-04T10:59:49.720Z,35.71
2018-07-04T11:02:30.480Z,35.99
2018-07-04T11:05:10.652Z,35.96
2018-07-04T11:07:50.921Z,35.93
2018-07-04T11:10:31.175Z,36.50
2018-07-04T11:13:11.201Z,35.98
2018-07-04T11:15:51.278Z,36.45
2018-07-04T11:18:31.381Z,35.19
2018-07-04T11:21:11.586Z,35.17
2018-07-04T11:23:51.870Z,35.62
2018-07-04T11:26:31.966Z,36.22
2018-07-04T11:29:12.020Z,36.26
2018-07-04T11:31:52.037Z,35.22
2018-07-04T11:34:32.063Z,35.48
2018-07-04T11:37:12.162Z,34.71
2018-07-04T11:39:52.281Z,34.15
2018-07-04T11:42:33.319Z,33.28
2018-07-04T11:45:13.400Z,33.38
2018-07-04T11:47:41.079Z,33.03
2018-07-04T11:50:08.761Z,32.94
2018-07-04T11:52:36.420Z,33.30
2018-07-04T11:55:04.099Z,32.07
2018-07-04T11:57:31.797Z,32.61
2018-07-04T11:59:59.558Z,33.89
2018-07-04T12:02:27.201Z,33.07
2018-07-04T12:05:07.222Z,34.54
2018-07-04T12:07:34.921Z,32.97
2018-07-04T12:10:02.621Z,33.13
2018-07-04T12:12:30.304Z,34.99
2018-07-04T12:14:57.989Z,34.08
2018-07-04T12:17:25.668Z,34.04
2018-07-04T12:19:53.329Z,33.08
2018-07-04T12:22:21.040Z,31.77
2018-07-04T12:24:48.689Z,32.96
2018-07-04T12:27:16.334Z,30.76
2018-07-04T12:29:44.044Z,31.69
2018-07-04T12:32:11.761Z,30.82
2018-07-04T12:34:39.471Z,31.52
2018-07-04T12:37:07.146Z,31.38
2018-07-04T12:39:34.884Z,32.20
2018-07-04T12:42:02.582Z,28.00
2018-07-04T12:44:30.196Z,28.27
2018-07-04T12:46:57.949Z,29.78
2018-07-04T12:49:27.889Z,29.90
2018-07-04T12:51:55.909Z,29.03
2018-07-04T12:54:28.774Z,26.76
2018-07-04T12:57:08.711Z,26.12
2018-07-04T12:59:49.053Z,27.16
2018-07-04T13:02:29.275Z,27.47
2018-07-04T13:05:09.324Z,25.91
2018-07-04T13:07:49.461Z,28.24
2018-07-04T13:10:29.623Z,27.78
2018-07-04T13:13:09.955Z,27.96
2018-07-04T13:15:50.015Z,27.61
2018-07-04T13:18:30.232Z,28.09
2018-07-04T13:21:10.424Z,27.94
2018-07-04T13:23:50.556Z,28.99
2018-07-04T13:26:30.655Z,28.86
2018-07-04T13:29:10.849Z,28.91
2018-07-04T13:31:50.869Z,26.21
2018-07-04T13:34:31.298Z,27.23
2018-07-04T13:37:11.465Z,27.33
2018-07-04T13:39:51.643Z,27.91
2018-07-04T13:42:31.657Z,28.40
2018-07-04T13:45:12.217Z,29.31
2018-07-04T13:47:52.335Z,28.08
2018-07-04T13:50:32.382Z,29.04
2018-07-04T13:53:12.474Z,28.26
2018-07-04T13:55:52.593Z,28.07
2018-07-04T13:58:32.713Z,29.62
2018-07-04T14:01:12.836Z,29.35
2018-07-04T14:03:53.148Z,29.26
2018-07-04T14:06:33.197Z,30.04
2018-07-04T14:09:13.249Z,30.46
2018-07-04T14:11:53.405Z,29.47
2018-07-04T14:14:33.661Z,29.62
2018-07-04T14:17:13.825Z,29.86
2018-07-04T14:19:54.001Z,30.63
2018-07-04T14:22:34.226Z,31.01
2018-07-04T14:25:14.300Z,29.90
2018-07-04T14:27:54.290Z,30.72
2018-07-04T14:30:34.449Z,30.67
2018-07-04T14:33:14.591Z,31.65
2018-07-04T14:35:54.547Z,31.65
2018-07-04T14:38:34.804Z,31.32
2018-07-04T14:41:14.999Z,31.83
2018-07-04T14:43:55.059Z,31.46
2018-07-04T14:46:35.173Z,31.58
2018-07-04T14:49:15.387Z,31.10
2018-07-04T14:51:55.681Z,30.88
2018-07-04T14:54:35.782Z,31.58
2018-07-04T14:57:15.898Z,31.58
2018-07-04T14:59:56.163Z,31.23
2018-07-04T15:02:36.385Z,30.93
2018-07-04T15:05:16.475Z,31.25
2018-07-04T15:07:56.709Z,31.62
2018-07-04T15:10:36.758Z,32.42
2018-07-04T15:13:16.826Z,31.33
2018-07-04T15:15:56.809Z,31.33
2018-07-04T15:18:36.890Z,30.60
2018-07-04T15:21:16.968Z,31.35
2018-07-04T15:23:56.983Z,32.36
2018-07-04T15:26:37.242Z,32.71
2018-07-04T15:29:17.489Z,31.83
2018-07-04T15:31:57.748Z,32.42
2018-07-04T15:34:37.946Z,31.94
2018-07-04T15:37:18.162Z,32.42
2018-07-04T15:39:58.318Z,31.67
2018-07-04T15:42:38.451Z,31.70
2018-07-04T15:45:18.467Z,31.71
2018-07-04T15:47:58.644Z,31.89
2018-07-04T15:50:38.858Z,32.03
2018-07-04T15:53:19.223Z,31.97
2018-07-04T15:55:59.286Z,33.74
2018-07-04T15:58:39.502Z,31.61
2018-07-04T16:01:19.609Z,32.01
2018-07-04T16:03:59.697Z,31.96
2018-07-04T16:06:39.881Z,32.90
2018-07-04T16:09:20.098Z,32.75
2018-07-04T16:12:00.195Z,32.02
2018-07-04T16:14:40.335Z,32.67
2018-07-04T16:17:20.465Z,32.38
2018-07-04T16:20:00.823Z,31.78
2018-07-04T16:22:40.791Z,31.93
2018-07-04T16:25:21.580Z,32.52
2018-07-04T16:28:01.672Z,32.91
2018-07-04T16:30:41.859Z,32.15
2018-07-04T16:33:21.960Z,32.68
2018-07-04T16:36:02.247Z,32.19
2018-07-04T16:38:42.507Z,32.54
2018-07-04T16:41:22.618Z,32.20
2018-07-04T16:44:02.716Z,33.59
2018-07-04T16:46:42.835Z,33.33
2018-07-04T16:49:22.914Z,32.56
2018-07-04T16:52:03.447Z,33.43
2018-07-04T16:54:43.878Z,32.87
2018-07-04T16:57:24.359Z,33.00
2018-07-04T17:00:04.788Z,33.59
2018-07-04T17:02:45.248Z,33.17
2018-07-04T17:05:25.475Z,33.29
2018-07-04T17:08:05.803Z,33.51
2018-07-04T17:10:46.234Z,34.17
2018-07-04T17:13:26.629Z,35.22
2018-07-04T17:16:07.478Z,33.45
2018-07-04T17:18:48.204Z,33.59
2018-07-04T17:21:28.360Z,33.69
2018-07-04T17:24:08.561Z,33.93
2018-07-04T17:26:48.814Z,33.29
2018-07-04T17:29:28.884Z,34.79
2018-07-04T17:32:08.992Z,34.07
2018-07-04T17:34:49.165Z,34.22
2018-07-04T17:37:29.185Z,34.59
2018-07-04T17:40:09.382Z,34.26
2018-07-04T17:42:49.429Z,33.23
2018-07-04T17:45:29.595Z,30.20
2018-07-04T17:48:09.749Z,30.05
2018-07-04T17:50:49.903Z,29.79
2018-07-04T17:53:30.716Z,28.45
2018-07-04T17:56:10.826Z,29.10
2018-07-04T18:06:13.283Z,28.53
2018-07-04T18:08:53.344Z,28.76
2018-07-04T18:11:33.157Z,28.44
2018-07-04T18:14:13.405Z,28.57
2018-07-04T18:16:53.422Z,27.04
2018-07-04T18:19:33.543Z,26.22
2018-07-04T18:22:13.541Z,26.54
2018-07-04T18:24:53.841Z,26.46
2018-07-04T18:27:34.081Z,26.84
2018-07-04T18:30:14.064Z,28.75
2018-07-04T18:32:54.266Z,29.48
2018-07-04T18:35:34.402Z,30.45
2018-07-04T18:38:14.488Z,31.80
2018-07-04T18:40:54.649Z,31.76
2018-07-04T18:43:34.692Z,32.53
2018-07-04T18:46:14.678Z,32.70
2018-07-04T18:48:54.924Z,32.77
2018-07-04T18:51:35.046Z,33.05
2018-07-04T18:54:15.200Z,33.92
2018-07-04T18:56:55.129Z,34.42
2018-07-04T18:59:35.205Z,34.14
2018-07-04T19:02:15.375Z,34.55
2018-07-04T19:04:55.409Z,35.36
2018-07-04T19:07:35.578Z,35.45
2018-07-04T19:10:15.786Z,36.26
2018-07-04T19:12:55.810Z,36.05
2018-07-04T19:15:35.934Z,36.58
2018-07-04T19:18:15.939Z,38.54
2018-07-04T19:20:56.053Z,40.63
2018-07-04T19:23:36.159Z,41.16
2018-07-04T19:26:16.276Z,42.88
2018-07-04T19:28:56.346Z,44.44
2018-07-04T19:31:36.611Z,46.12
2018-07-04T19:34:16.662Z,47.77
2018-07-04T19:36:56.804Z,49.85
2018-07-04T19:39:37.038Z,50.94
2018-07-04T19:42:17.469Z,52.09
2018-07-04T19:44:57.285Z,53.19
2018-07-04T19:47:37.509Z,54.51
2018-07-04T19:50:17.761Z,56.42
2018-07-04T19:52:57.892Z,57.54
2018-07-04T19:55:37.934Z,58.73
2018-07-04T19:58:18.168Z,58.70
2018-07-04T20:00:58.148Z,59.86
2018-07-04T20:03:38.399Z,60.42
2018-07-04T20:06:32.201Z,61.02
2018-07-04T20:09:12.435Z,61.81
2018-07-04T20:11:52.665Z,62.46
2018-07-04T20:14:32.894Z,63.16
2018-07-04T20:17:13.113Z,63.80
2018-07-04T20:19:53.308Z,64.54
2018-07-04T20:22:33.369Z,65.22
2018-07-04T20:25:13.409Z,65.50
2018-07-04T20:27:53.610Z,65.97
2018-07-04T20:30:33.668Z,66.48
2018-07-04T20:33:13.795Z,66.67
2018-07-04T20:35:53.982Z,66.92
2018-07-04T20:38:34.031Z,67.17
2018-07-04T20:41:14.141Z,66.98
2018-07-04T20:43:54.260Z,66.92
2018-07-04T20:46:34.369Z,67.54
2018-07-04T20:49:14.436Z,68.14
2018-07-04T20:51:54.645Z,68.43
2018-07-04T20:54:34.759Z,68.92
2018-07-04T20:57:14.903Z,69.45
2018-07-04T20:59:54.986Z,69.70
2018-07-04T21:02:35.295Z,69.51
2018-07-04T21:05:15.549Z,69.65
2018-07-04T21:07:55.569Z,70.22
2018-07-04T21:10:35.800Z,70.94
2018-07-04T21:13:16.021Z,71.58
2018-07-04T21:15:56.185Z,72.17
2018-07-04T21:18:36.413Z,72.42
2018-07-04T21:21:16.441Z,72.93
2018-07-04T21:23:56.509Z,73.54
2018-07-04T21:26:36.875Z,74.06
2018-07-04T21:29:16.993Z,74.91
2018-07-04T21:31:56.992Z,74.70
2018-07-04T21:34:37.049Z,74.91
2018-07-04T21:37:17.221Z,75.41
2018-07-04T21:39:57.369Z,76.07
2018-07-04T21:42:37.549Z,77.08
2018-07-04T21:48:43.355Z,77.65
2018-07-04T21:51:23.555Z,78.09
2018-07-04T21:54:03.772Z,78.87
2018-07-04T21:56:44.029Z,78.91
2018-07-04T21:59:24.217Z,79.06
2018-07-04T22:02:04.271Z,78.30
2018-07-04T22:04:44.443Z,78.62
2018-07-04T22:07:24.485Z,77.84
2018-07-04T22:10:04.404Z,78.41
2018-07-04T22:12:44.477Z,78.88
2018-07-04T22:15:24.608Z,80.42
2018-07-04T22:18:04.676Z,81.09
2018-07-04T22:20:44.565Z,81.61
2018-07-04T22:23:24.521Z,82.47
2018-07-04T22:26:04.540Z,82.71
2018-07-04T22:28:44.546Z,82.72
2018-07-04T22:31:24.642Z,82.22
2018-07-04T22:34:05.019Z,81.31
2018-07-04T22:36:44.977Z,82.00
2018-07-04T22:39:24.861Z,81.37
2018-07-04T22:42:04.959Z,82.23
2018-07-04T22:44:44.970Z,83.04
2018-07-04T22:47:24.879Z,85.05
2018-07-04T22:50:04.995Z,85.47
2018-07-04T22:52:45.257Z,85.75
2018-07-04T22:55:25.448Z,84.04
2018-07-04T22:58:05.451Z,82.69
2018-07-04T23:00:45.832Z,82.12
2018-07-04T23:03:26.378Z,82.36
2018-07-04T23:06:06.495Z,83.96
2018-07-04T23:08:46.737Z,84.00
2018-07-04T23:11:26.847Z,83.66
2018-07-04T23:14:06.970Z,84.51
2018-07-04T23:16:47.198Z,84.03
2018-07-04T23:19:27.333Z,84.00
2018-07-04T23:22:07.483Z,83.33
2018-07-04T23:24:47.453Z,83.33
2018-07-04T23:27:27.690Z,83.25
2018-07-04T23:30:08.011Z,84.64
2018-07-04T23:32:48.207Z,84.74
2018-07-04T23:35:28.292Z,84.82
2018-07-04T23:38:08.452Z,85.62
2018-07-04T23:40:48.818Z,86.42
2018-07-04T23:43:29.118Z,86.69
2018-07-04T23:46:09.448Z,86.42
2018-07-04T23:48:49.443Z,85.56
2018-07-04T23:51:29.361Z,82.65
2018-07-04T23:54:09.547Z,82.56
2018-07-04T23:56:49.674Z,84.73
2018-07-04T23:59:30.004Z,83.76
